createdAt,value
2023-03-10T00:01:57.319Z,14.87
2023-03-10T00:04:29.823Z,15.70
2023-03-10T00:06:59.949Z,14.23
2023-03-10T00:09:29.844Z,14.00
2023-03-10T00:12:02.091Z,12.90
2023-03-10T00:14:31.991Z,13.63
2023-03-10T00:17:01.878Z,13.37
2023-03-10T00:19:34.492Z,13.20
2023-03-10T00:22:05.568Z,12.73
2023-03-10T00:24:35.572Z,13.37
2023-03-10T00:27:05.591Z,12.67
2023-03-10T00:29:35.784Z,13.63
2023-03-10T00:32:08.866Z,12.77
2023-03-10T00:34:41.593Z,14.00
2023-03-10T00:37:11.499Z,13.13
2023-03-10T00:39:42.296Z,12.80
2023-03-10T00:42:12.440Z,13.47
2023-03-10T00:44:42.499Z,13.27
2023-03-10T00:47:12.474Z,13.63
2023-03-10T00:49:45.120Z,13.27
2023-03-10T00:52:16.912Z,12.27
2023-03-10T00:54:46.876Z,12.90
2023-03-10T00:57:16.705Z,13.20
2023-03-10T00:59:50.715Z,12.17
2023-03-10T01:02:21.145Z,12.30
2023-03-10T01:05:04.327Z,12.27
2023-03-10T01:43:10.237Z,14.77
2023-03-10T01:44:31.736Z,13.30
2023-03-10T01:47:02.124Z,13.63
2023-03-10T01:49:41.121Z,14.27
2023-03-10T01:52:16.400Z,15.40
2023-03-10T01:54:52.002Z,14.20
2023-03-10T01:57:26.635Z,15.23
2023-03-10T01:59:58.635Z,14.83
2023-03-10T02:02:29.196Z,16.33
2023-03-10T02:05:02.115Z,14.30
2023-03-10T02:07:33.211Z,14.37
2023-03-10T02:10:03.585Z,13.87
2023-03-10T02:12:33.411Z,14.23
2023-03-10T02:15:04.444Z,12.67
2023-03-10T02:17:34.359Z,14.03
2023-03-10T02:20:32.089Z,13.70
2023-03-10T02:23:01.969Z,13.97
2023-03-10T02:25:43.763Z,15.03
2023-03-10T02:28:21.938Z,13.63
2023-03-10T02:30:53.872Z,15.00
2023-03-10T02:33:27.685Z,14.37
2023-03-10T02:35:57.597Z,14.77
2023-03-10T02:38:27.470Z,14.73
2023-03-10T02:40:57.594Z,14.73
2023-03-10T02:43:33.931Z,15.43
2023-03-10T02:46:07.001Z,14.20
2023-03-10T02:48:40.356Z,13.63
2023-03-10T02:51:16.051Z,14.77
2023-03-10T03:18:23.692Z,15.93
2023-03-10T03:20:54.421Z,14.27
2023-03-10T03:23:24.311Z,13.80
2023-03-10T03:25:54.335Z,13.57
2023-03-10T03:28:24.260Z,14.27
2023-03-10T03:31:18.338Z,12.70
2023-03-10T03:34:55.433Z,13.67
2023-03-10T03:38:10.810Z,14.70
2023-03-10T03:41:18.497Z,13.37
2023-03-10T04:15:17.843Z,16.87
2023-03-10T04:17:48.025Z,15.63
2023-03-10T04:20:18.777Z,17.30
2023-03-10T04:22:54.977Z,17.43
2023-03-10T04:47:17.241Z,21.93
2023-03-10T04:49:47.059Z,19.83
2023-03-10T04:52:17.226Z,21.60
2023-03-10T04:54:47.060Z,21.53
2023-03-10T04:57:16.817Z,20.87
2023-03-10T04:59:53.073Z,19.70
2023-03-10T05:02:22.880Z,19.17
2023-03-10T05:04:52.688Z,19.30
2023-03-10T05:07:22.652Z,19.40
2023-03-10T05:09:52.459Z,18.50
2023-03-10T05:12:22.679Z,18.30
2023-03-10T05:14:55.078Z,18.13
2023-03-10T05:17:24.902Z,17.30
2023-03-10T05:19:55.081Z,18.37
2023-03-10T05:22:24.923Z,16.93
2023-03-10T05:24:54.736Z,15.70
2023-03-10T05:27:24.771Z,16.10
2023-03-10T05:29:57.171Z,14.40
2023-03-10T05:32:27.111Z,15.33
2023-03-10T05:34:56.979Z,15.70
2023-03-10T05:37:26.973Z,15.20
2023-03-10T05:39:56.967Z,14.73
2023-03-10T05:42:26.850Z,15.57
2023-03-10T05:45:21.951Z,15.33
2023-03-10T05:47:52.159Z,15.63
2023-03-10T05:50:22.187Z,17.43
2023-03-10T05:52:52.094Z,17.30
2023-03-10T05:55:24.224Z,17.83
2023-03-10T05:57:54.074Z,15.77
2023-03-10T06:00:27.764Z,17.60
2023-03-10T06:03:00.122Z,16.93
2023-03-10T06:05:32.334Z,18.43
2023-03-10T06:08:06.049Z,17.33
2023-03-10T06:10:53.171Z,17.90
2023-03-10T06:13:46.934Z,18.27
2023-03-10T06:28:38.952Z,16.53
2023-03-10T06:31:15.321Z,16.47
2023-03-10T06:33:46.842Z,16.27
2023-03-10T06:36:20.460Z,16.37
2023-03-10T06:39:30.112Z,16.77
2023-03-10T06:42:04.085Z,15.53
2023-03-10T06:44:37.765Z,15.27
2023-03-10T06:47:21.163Z,16.13
2023-03-10T06:50:01.549Z,13.23
2023-03-10T06:52:40.357Z,15.47
2023-03-10T06:55:13.837Z,16.90
2023-03-10T06:57:47.929Z,17.13
2023-03-10T07:00:35.126Z,18.23
2023-03-10T07:03:05.283Z,17.13
2023-03-10T07:05:41.958Z,17.10
2023-03-10T07:08:43.737Z,17.93
2023-03-10T07:11:14.138Z,19.57
2023-03-10T07:13:55.507Z,18.07
2023-03-10T07:16:32.454Z,17.30
2023-03-10T07:19:10.453Z,17.83
2023-03-10T07:21:40.469Z,18.90
2023-03-10T07:24:10.465Z,19.13
2023-03-10T07:26:41.048Z,21.13
2023-03-10T07:29:11.088Z,20.60
2023-03-10T07:31:43.461Z,21.40
2023-03-10T07:34:13.339Z,19.63
2023-03-10T07:36:43.253Z,21.23
2023-03-10T07:39:13.278Z,20.53
2023-03-10T07:41:43.086Z,22.57
2023-03-10T07:44:13.024Z,22.93
2023-03-10T07:46:47.818Z,23.20
2023-03-10T07:49:19.944Z,24.10
2023-03-10T07:51:51.722Z,23.60
2023-03-10T07:54:21.501Z,24.93
2023-03-10T07:56:51.324Z,24.47
2023-03-10T07:59:21.148Z,24.53
2023-03-10T08:01:53.517Z,23.50
2023-03-10T08:04:23.562Z,24.23
2023-03-10T08:06:57.741Z,22.43
2023-03-10T08:09:28.489Z,22.77
2023-03-10T08:11:58.566Z,20.33
2023-03-10T08:14:32.971Z,23.03
2023-03-10T08:17:05.432Z,23.87
2023-03-10T08:19:47.612Z,22.63
2023-03-10T08:22:20.690Z,23.13
2023-03-10T08:24:51.632Z,23.03
2023-03-10T08:27:21.858Z,21.80
2023-03-10T08:29:52.585Z,23.03
2023-03-10T08:32:25.125Z,23.73
2023-03-10T08:34:54.940Z,22.73
2023-03-10T08:37:24.728Z,23.73
2023-03-10T08:39:56.697Z,24.43
2023-03-10T08:42:26.580Z,24.17
2023-03-10T08:44:58.330Z,24.67
2023-03-10T08:47:32.381Z,22.97
2023-03-10T08:50:02.440Z,22.13
2023-03-10T08:52:32.272Z,22.77
2023-03-10T08:55:02.114Z,19.63
2023-03-10T08:57:31.936Z,19.37
2023-03-10T09:00:01.830Z,18.50
2023-03-10T09:02:37.320Z,19.87
2023-03-10T09:05:07.685Z,17.87
2023-03-10T09:07:37.537Z,18.33
2023-03-10T09:10:09.000Z,18.13
2023-03-10T09:12:39.652Z,17.33
2023-03-10T09:15:10.698Z,17.10
2023-03-10T09:17:43.104Z,19.33
2023-03-10T09:20:15.688Z,17.73
2023-03-10T09:22:45.972Z,19.37
2023-03-10T09:25:15.835Z,20.00
2023-03-10T09:27:46.793Z,20.13
2023-03-10T09:30:18.076Z,19.87
2023-03-10T09:32:55.413Z,21.00
2023-03-10T09:35:25.710Z,21.63
2023-03-10T09:37:55.885Z,21.77
2023-03-10T09:40:26.387Z,22.93
2023-03-10T09:43:02.992Z,22.70
2023-03-10T09:45:41.414Z,24.30
2023-03-10T09:48:28.079Z,24.30
2023-03-10T09:50:59.610Z,23.77
2023-03-10T09:53:48.079Z,23.70
2023-03-10T09:56:22.307Z,23.50
2023-03-10T09:58:55.868Z,24.40
2023-03-10T10:01:29.566Z,24.10
2023-03-10T10:04:07.636Z,23.43
2023-03-10T10:06:40.369Z,26.07
2023-03-10T10:09:20.180Z,25.53
2023-03-10T10:11:49.927Z,24.93
2023-03-10T10:14:29.589Z,25.27
2023-03-10T10:17:32.478Z,26.07
2023-03-10T10:20:09.202Z,22.37
2023-03-10T10:22:39.554Z,24.60
2023-03-10T10:25:22.452Z,25.20
2023-03-10T10:27:55.444Z,24.73
2023-03-10T10:30:36.573Z,24.20
2023-03-10T10:33:08.366Z,24.37
2023-03-10T10:35:43.260Z,25.23
2023-03-10T10:38:26.600Z,21.10
2023-03-10T10:41:07.195Z,25.03
2023-03-10T10:43:44.389Z,26.40
2023-03-10T10:46:16.716Z,24.83
2023-03-10T10:48:48.589Z,23.47
2023-03-10T10:51:30.344Z,23.40
2023-03-10T10:54:00.996Z,25.30
2023-03-10T10:56:31.938Z,26.17
2023-03-10T10:59:08.517Z,26.57
2023-03-10T11:01:54.613Z,25.73
2023-03-10T11:04:26.522Z,24.37
2023-03-10T11:07:12.825Z,24.17
2023-03-10T11:09:43.099Z,22.93
2023-03-10T11:12:24.838Z,21.83
2023-03-10T11:15:07.096Z,21.13
2023-03-10T11:17:45.493Z,21.23
2023-03-10T11:20:30.916Z,22.03
2023-03-10T11:23:14.299Z,23.07
2023-03-10T11:25:50.475Z,21.67
2023-03-10T11:28:53.384Z,22.50
2023-03-10T11:31:52.805Z,20.53
2023-03-10T11:34:33.638Z,21.97
2023-03-10T11:37:40.527Z,21.40
2023-03-10T11:40:22.058Z,20.20
2023-03-10T11:43:05.258Z,19.53
2023-03-10T11:45:41.049Z,21.00
2023-03-10T11:48:27.429Z,21.67
2023-03-10T11:50:59.386Z,20.60
2023-03-10T11:53:37.135Z,20.77
2023-03-10T11:56:14.953Z,20.83
2023-03-10T11:58:49.383Z,18.63
2023-03-10T12:01:24.625Z,19.20
2023-03-10T12:04:19.087Z,17.63
2023-03-10T12:06:55.254Z,18.83
2023-03-10T12:09:42.357Z,18.47
2023-03-10T12:12:18.050Z,16.07
2023-03-10T12:14:49.240Z,17.07
2023-03-10T12:17:20.820Z,19.27
2023-03-10T12:20:12.297Z,17.13
2023-03-10T12:22:43.931Z,15.07
2023-03-10T12:25:45.180Z,15.70
2023-03-10T12:28:27.820Z,13.43
2023-03-10T12:31:00.367Z,13.87
2023-03-10T12:34:11.398Z,13.37
2023-03-10T12:36:43.558Z,13.40
2023-03-10T12:39:43.080Z,13.50
2023-03-10T12:42:31.905Z,13.10
2023-03-10T12:45:18.463Z,12.00
2023-03-10T12:47:58.925Z,12.47
2023-03-10T12:50:39.351Z,11.60
2023-03-10T12:53:27.080Z,11.87
2023-03-10T12:56:23.215Z,11.40
2023-03-10T12:59:05.262Z,11.23
2023-03-10T13:01:55.014Z,24.13
2023-03-10T13:04:28.467Z,11.13
2023-03-10T13:07:03.817Z,10.83
2023-03-10T13:09:39.093Z,11.27
2023-03-10T13:12:14.675Z,11.53
2023-03-10T13:14:46.554Z,10.97
2023-03-10T13:17:29.126Z,12.97
2023-03-10T13:20:05.766Z,11.27
2023-03-10T13:22:36.112Z,11.07
2023-03-10T13:25:09.792Z,11.13
2023-03-10T13:27:39.552Z,11.83
2023-03-10T13:30:26.811Z,10.87
2023-03-10T13:33:07.303Z,11.53
2023-03-10T13:35:47.480Z,12.07
2023-03-10T13:38:20.992Z,12.37
2023-03-10T13:40:53.847Z,11.57
2023-03-10T13:43:39.359Z,11.33
2023-03-10T13:46:16.946Z,12.00
2023-03-10T13:48:50.548Z,11.23
2023-03-10T13:51:23.967Z,11.27
2023-03-10T13:53:56.056Z,10.47
2023-03-10T13:56:28.060Z,11.20
2023-03-10T13:59:02.566Z,11.90
2023-03-10T14:01:35.647Z,12.40
2023-03-10T14:04:11.190Z,11.80
2023-03-10T14:06:40.973Z,11.77
2023-03-10T14:09:19.039Z,11.23
2023-03-10T14:11:50.565Z,10.43
2023-03-10T14:14:31.025Z,10.57
2023-03-10T14:17:02.111Z,9.20
2023-03-10T14:19:55.466Z,10.17
2023-03-10T14:22:35.460Z,10.20
2023-03-10T14:25:09.292Z,9.20
2023-03-10T14:27:42.102Z,10.17
2023-03-10T14:30:25.934Z,10.17
2023-03-10T14:32:56.493Z,8.40
2023-03-10T14:35:29.876Z,4.77
2023-03-10T14:37:59.627Z,7.13
2023-03-10T14:40:30.262Z,8.00
2023-03-10T14:43:04.209Z,7.90
2023-03-10T14:45:36.493Z,8.90
2023-03-10T14:48:14.906Z,7.90
2023-03-10T14:50:47.796Z,7.70
2023-03-10T14:53:19.709Z,8.50
2023-03-10T14:55:51.622Z,5.43
2023-03-10T14:58:24.268Z,7.10
2023-03-10T15:00:54.516Z,6.53
2023-03-10T15:03:24.568Z,7.20
2023-03-10T15:05:56.982Z,8.10
2023-03-10T15:08:28.675Z,7.67
2023-03-10T15:11:00.947Z,7.47
2023-03-10T15:13:36.175Z,8.70
2023-03-10T15:16:06.258Z,7.53
2023-03-10T15:18:37.521Z,11.27
2023-03-10T15:21:12.132Z,9.10
2023-03-10T15:23:42.029Z,10.13
2023-03-10T15:26:13.542Z,9.93
2023-03-10T15:29:51.477Z,10.97
2023-03-10T15:32:21.515Z,9.97
2023-03-10T15:34:55.792Z,8.13
2023-03-10T15:37:28.341Z,9.07
2023-03-10T15:39:58.240Z,5.90
2023-03-10T15:42:28.147Z,5.60
2023-03-10T15:45:00.924Z,5.47
2023-03-10T15:47:31.396Z,5.37
2023-03-10T15:50:01.540Z,6.03
2023-03-10T15:52:34.047Z,5.60
2023-03-10T15:55:05.669Z,6.00
2023-03-10T15:57:35.871Z,7.27
2023-03-10T16:00:07.085Z,7.13
2023-03-10T16:02:36.902Z,6.93
2023-03-10T16:05:08.691Z,5.63
2023-03-10T16:07:41.212Z,4.73
2023-03-10T16:10:13.522Z,3.97
2023-03-10T16:12:43.309Z,3.70
2023-03-10T16:15:16.953Z,3.90
2023-03-10T16:17:47.910Z,4.10
2023-03-10T16:20:19.261Z,4.57
2023-03-10T16:22:51.768Z,4.53
2023-03-10T16:25:23.480Z,5.20
2023-03-10T16:27:53.415Z,4.80
2023-03-10T16:30:28.075Z,6.40
2023-03-10T16:33:00.875Z,5.63
2023-03-10T16:35:33.221Z,5.37
2023-03-10T16:38:08.797Z,5.43
2023-03-10T16:40:55.943Z,5.50
2023-03-10T16:43:25.845Z,5.20
2023-03-10T16:46:11.043Z,5.77
2023-03-10T16:48:49.965Z,5.43
2023-03-10T16:51:29.584Z,6.20
2023-03-10T16:54:04.062Z,5.00
2023-03-10T16:56:42.303Z,4.90
2023-03-10T16:59:18.235Z,5.10
2023-03-10T17:01:48.922Z,4.03
2023-03-10T17:04:29.651Z,3.90
2023-03-10T17:07:00.965Z,3.47
2023-03-10T17:09:33.586Z,4.20
2023-03-10T17:12:03.766Z,4.73
2023-03-10T17:14:35.667Z,4.90
2023-03-10T17:17:08.043Z,5.83
2023-03-10T17:19:39.409Z,6.33
2023-03-10T17:22:09.380Z,6.27
2023-03-10T17:24:44.165Z,5.77
2023-03-10T17:27:14.178Z,6.80
2023-03-10T17:29:44.112Z,6.30
2023-03-10T17:32:23.896Z,7.00
2023-03-10T17:34:53.864Z,7.03
2023-03-10T17:37:24.191Z,7.93
2023-03-10T17:39:56.950Z,6.97
2023-03-10T17:42:27.510Z,6.47
2023-03-10T17:44:57.367Z,5.93
2023-03-10T17:47:27.394Z,6.00
2023-03-10T17:50:00.309Z,5.50
2023-03-10T17:52:30.363Z,4.70
2023-03-10T17:55:03.032Z,3.50
2023-03-10T17:57:33.063Z,3.27
2023-03-10T18:00:05.416Z,3.80
2023-03-10T18:02:35.401Z,3.70
2023-03-10T18:05:05.347Z,4.17
2023-03-10T18:07:35.112Z,5.03
2023-03-10T18:10:08.850Z,3.83
2023-03-10T18:12:38.598Z,3.83
2023-03-10T18:15:09.538Z,4.27
2023-03-10T18:17:39.445Z,4.30
2023-03-10T18:20:17.492Z,4.50
2023-03-10T18:22:48.019Z,4.20
2023-03-10T18:25:21.552Z,4.97
2023-03-10T18:27:51.592Z,2.87
2023-03-10T18:30:24.514Z,2.43
2023-03-10T18:32:57.111Z,2.00
2023-03-10T18:35:27.137Z,1.93
2023-03-10T18:37:57.674Z,2.03
2023-03-10T18:40:30.220Z,2.07
2023-03-10T18:43:00.179Z,1.63
2023-03-10T18:45:29.979Z,1.73
2023-03-10T18:47:59.827Z,1.20
2023-03-10T18:50:29.804Z,1.50
2023-03-10T18:53:00.474Z,1.57
2023-03-10T18:55:32.971Z,1.67
2023-03-10T18:58:02.876Z,1.50
2023-03-10T19:00:33.141Z,1.87
2023-03-10T19:03:03.177Z,1.63
2023-03-10T19:05:33.238Z,1.33
2023-03-10T19:08:03.984Z,1.43
2023-03-10T19:10:36.835Z,1.47
2023-03-10T19:13:07.687Z,1.93
2023-03-10T19:15:39.510Z,1.70
2023-03-10T19:18:09.538Z,1.73
2023-03-10T19:20:39.351Z,1.50
2023-03-10T19:23:09.272Z,1.60
2023-03-10T19:25:41.728Z,1.83
2023-03-10T19:28:13.084Z,1.93
2023-03-10T19:30:45.014Z,1.60
2023-03-10T19:33:14.982Z,2.13
2023-03-10T19:35:44.982Z,2.80
2023-03-10T19:38:14.877Z,1.33
2023-03-10T19:40:49.078Z,1.60
2023-03-10T19:43:18.890Z,1.60
2023-03-10T19:46:01.948Z,1.53
2023-03-10T19:48:32.634Z,2.07
2023-03-10T19:51:03.026Z,1.70
2023-03-10T19:53:33.147Z,1.40
2023-03-10T19:56:08.721Z,1.60
2023-03-10T19:58:39.469Z,1.83
2023-03-10T20:01:15.318Z,1.57
2023-03-10T20:03:46.335Z,1.57
2023-03-10T20:06:16.387Z,1.63
2023-03-10T20:08:49.353Z,1.90
2023-03-10T20:11:24.802Z,2.50
2023-03-10T20:14:01.444Z,1.80
2023-03-10T20:16:33.016Z,2.13
2023-03-10T20:19:19.914Z,1.80
2023-03-10T20:21:50.063Z,2.00
2023-03-10T20:24:28.869Z,2.10
2023-03-10T20:27:03.295Z,2.10
2023-03-10T20:29:47.442Z,1.87
2023-03-10T20:32:17.488Z,2.07
2023-03-10T20:34:47.433Z,1.63
2023-03-10T20:37:17.256Z,1.23
2023-03-10T20:39:47.144Z,1.60
2023-03-10T20:42:21.894Z,1.57
2023-03-10T20:44:51.751Z,1.57
2023-03-10T20:47:22.840Z,1.83
2023-03-10T20:49:52.885Z,1.60
2023-03-10T20:52:22.800Z,2.40
2023-03-10T20:54:52.825Z,1.73
2023-03-10T20:57:25.484Z,2.20
2023-03-10T20:59:55.972Z,1.60
2023-03-10T21:02:25.920Z,2.90
2023-03-10T21:04:55.882Z,3.23
2023-03-10T21:07:25.986Z,2.03
2023-03-10T21:10:01.319Z,2.90
2023-03-10T21:12:34.470Z,2.37
2023-03-10T21:15:04.414Z,1.80
2023-03-10T21:17:37.354Z,2.10
2023-03-10T21:20:09.081Z,2.23
2023-03-10T21:22:40.046Z,2.10
2023-03-10T21:25:12.788Z,2.30
2023-03-10T21:27:45.361Z,1.80
2023-03-10T21:30:20.196Z,1.87
2023-03-10T21:32:50.210Z,1.70
2023-03-10T21:35:20.399Z,2.00
2023-03-10T21:37:50.502Z,1.80
2023-03-10T21:40:26.081Z,2.37
2023-03-10T21:43:00.219Z,2.10
2023-03-10T21:48:23.254Z,2.03
2023-03-10T21:50:59.784Z,1.70
2023-03-10T21:53:29.967Z,2.07
2023-03-10T21:58:35.207Z,2.10
2023-03-10T22:03:50.335Z,1.50
2023-03-10T22:06:20.219Z,2.33
2023-03-10T22:08:53.035Z,2.40
2023-03-10T22:11:25.136Z,1.87
2023-03-10T22:13:57.624Z,3.00
2023-03-10T22:16:27.527Z,2.90
2023-03-10T22:18:57.460Z,2.20
2023-03-10T22:21:27.847Z,2.53
2023-03-10T22:23:57.968Z,2.03
2023-03-10T22:26:28.667Z,1.70
2023-03-10T22:29:01.090Z,1.57
2023-03-10T22:31:37.887Z,1.47
2023-03-10T22:34:07.762Z,1.57
2023-03-10T22:36:40.556Z,1.63
2023-03-10T22:39:13.472Z,1.83
2023-03-10T22:41:43.386Z,1.43
2023-03-10T22:44:16.272Z,1.50
2023-03-10T22:46:47.257Z,1.70
2023-03-10T22:49:18.904Z,1.90
2023-03-10T22:51:49.434Z,1.77
2023-03-10T22:54:22.121Z,1.83
2023-03-10T22:56:51.897Z,1.73
2023-03-10T22:59:31.944Z,1.80
2023-03-10T23:02:01.771Z,1.50
2023-03-10T23:18:13.185Z,1.90
2023-03-10T23:24:07.973Z,1.50
2023-03-10T23:26:50.389Z,1.77
2023-03-10T23:29:32.298Z,1.87
2023-03-10T23:32:02.210Z,1.33
2023-03-10T23:34:32.134Z,1.70
2023-03-10T23:37:02.086Z,1.50
2023-03-10T23:39:34.533Z,2.10
2023-03-10T23:42:06.775Z,1.60
2023-03-10T23:44:39.652Z,1.33
2023-03-10T23:47:09.698Z,1.63
2023-03-10T23:49:39.584Z,1.77
2023-03-10T23:52:09.660Z,2.30
2023-03-10T23:54:42.167Z,1.70
2023-03-10T23:57:12.034Z,2.20
2023-03-10T23:59:42.478Z,1.60
